createdAt,value
2022-11-01T00:00:35.751Z,2.70
2022-11-01T00:03:03.511Z,8.18
2022-11-01T00:05:29.810Z,15.18
2022-11-01T00:07:56.040Z,3.15
2022-11-01T00:10:22.374Z,5.05
2022-11-01T00:12:49.126Z,5.20
2022-11-01T00:15:15.437Z,2.80
2022-11-01T00:17:41.876Z,2.97
2022-11-01T00:20:09.882Z,3.30
2022-11-01T00:22:37.011Z,3.53
2022-11-01T00:25:04.261Z,3.55
2022-11-01T00:27:30.459Z,3.60
2022-11-01T00:29:56.687Z,3.72
2022-11-01T00:32:22.944Z,3.58
2022-11-01T00:34:50.180Z,3.70
2022-11-01T00:37:16.395Z,4.30
2022-11-01T00:39:43.564Z,5.32
2022-11-01T00:42:10.804Z,4.60
2022-11-01T00:44:37.020Z,4.97
2022-11-01T00:47:03.173Z,3.80
2022-11-01T00:49:29.376Z,3.90
2022-11-01T00:51:56.639Z,3.60
2022-11-01T00:54:23.775Z,4.75
2022-11-01T00:56:50.010Z,3.55
2022-11-01T00:59:16.231Z,3.65
2022-11-01T01:01:42.630Z,3.50
2022-11-01T01:04:09.095Z,15.13
2022-11-01T01:06:36.267Z,15.93
2022-11-01T01:09:02.581Z,3.62
2022-11-01T01:11:28.805Z,3.40
2022-11-01T01:13:55.028Z,3.08
2022-11-01T01:16:21.241Z,3.62
2022-11-01T01:18:47.848Z,3.30
2022-11-01T01:21:15.296Z,3.47
2022-11-01T01:23:43.869Z,3.25
2022-11-01T01:26:10.772Z,3.70
2022-11-01T01:28:43.458Z,3.75
2022-11-01T01:31:12.423Z,3.70
2022-11-01T01:33:38.624Z,3.40
2022-11-01T01:36:05.928Z,3.40
2022-11-01T01:38:35.539Z,3.22
2022-11-01T01:41:23.078Z,4.68
2022-11-01T01:43:49.385Z,3.35
2022-11-01T01:46:15.558Z,3.80
2022-11-01T01:48:44.583Z,3.55
2022-11-01T01:51:21.246Z,3.70
2022-11-01T01:53:52.260Z,3.55
2022-11-01T01:56:31.137Z,3.50
2022-11-01T01:59:08.428Z,3.40
2022-11-01T02:01:38.179Z,3.45
2022-11-01T02:04:06.831Z,3.25
2022-11-01T02:06:33.185Z,3.45
2022-11-01T02:09:00.330Z,3.37
2022-11-01T02:11:27.656Z,3.50
2022-11-01T02:13:53.985Z,3.30
2022-11-01T02:19:54.464Z,3.85
2022-11-01T02:24:02.062Z,3.17
2022-11-01T02:30:02.073Z,3.00
2022-11-01T02:33:35.272Z,3.12
2022-11-01T02:36:05.831Z,3.55
2022-11-01T02:38:41.448Z,3.10
2022-11-01T02:41:33.171Z,3.40
2022-11-01T02:44:03.550Z,3.10
2022-11-01T02:47:02.544Z,4.12
2022-11-01T02:49:40.389Z,3.20
2022-11-01T02:52:08.197Z,3.22
2022-11-01T02:54:44.832Z,3.90
2022-11-01T02:58:01.985Z,3.97
2022-11-01T03:00:30.519Z,3.05
2022-11-01T03:03:17.671Z,3.30
2022-11-01T03:06:12.018Z,4.60
2022-11-01T03:08:46.964Z,4.28
2022-11-01T03:11:24.063Z,4.37
2022-11-01T03:15:20.201Z,8.43
2022-11-01T03:20:47.785Z,18.37
2022-11-01T03:23:28.232Z,5.10
2022-11-01T03:25:55.680Z,2.95
2022-11-01T03:28:24.980Z,3.20
2022-11-01T03:31:36.708Z,3.60
2022-11-01T03:34:11.759Z,3.47
2022-11-01T03:36:39.893Z,5.68
2022-11-01T03:39:15.549Z,9.90
2022-11-01T03:41:46.367Z,14.73
2022-11-01T03:44:14.619Z,10.88
2022-11-01T03:46:43.421Z,11.50
2022-11-01T03:49:09.847Z,7.85
2022-11-01T03:51:36.083Z,16.62
2022-11-01T03:54:02.315Z,7.60
2022-11-01T03:56:31.695Z,7.18
2022-11-01T03:58:57.905Z,4.25
2022-11-01T04:01:24.287Z,4.47
2022-11-01T04:03:51.008Z,3.92
2022-11-01T04:06:18.360Z,3.33
2022-11-01T04:08:44.540Z,3.10
2022-11-01T04:11:11.332Z,7.68
2022-11-01T04:13:38.418Z,11.05
2022-11-01T04:16:23.257Z,22.42
2022-11-01T04:19:08.249Z,15.00
2022-11-01T04:21:34.432Z,13.02
2022-11-01T04:24:00.573Z,11.45
2022-11-01T04:26:27.065Z,3.55
2022-11-01T04:28:57.671Z,4.40
2022-11-01T04:31:32.555Z,3.75
2022-11-01T04:33:59.044Z,3.70
2022-11-01T04:36:25.417Z,6.50
2022-11-01T04:38:55.367Z,13.93
2022-11-01T04:41:26.429Z,15.50
2022-11-01T04:43:53.875Z,5.40
2022-11-01T04:46:22.859Z,11.68
2022-11-01T04:48:49.479Z,8.13
2022-11-01T04:51:17.097Z,6.93
2022-11-01T04:53:43.456Z,14.23
2022-11-01T04:56:12.035Z,4.47
2022-11-01T04:58:43.004Z,12.88
2022-11-01T05:01:16.434Z,24.45
2022-11-01T05:03:50.475Z,15.98
2022-11-01T05:06:17.828Z,9.65
2022-11-01T05:08:44.053Z,4.55
2022-11-01T05:11:10.288Z,4.00
2022-11-01T05:13:39.026Z,18.40
2022-11-01T05:16:19.018Z,4.60
2022-11-01T05:18:46.092Z,3.58
2022-11-01T05:21:12.601Z,3.50
2022-11-01T05:23:42.381Z,3.72
2022-11-01T05:26:08.725Z,4.00
2022-11-01T05:28:37.951Z,4.18
2022-11-01T05:31:06.155Z,3.30
2022-11-01T05:33:32.592Z,3.20
2022-11-01T05:36:01.295Z,3.37
2022-11-01T05:38:27.540Z,3.40
2022-11-01T05:40:54.100Z,3.20
2022-11-01T05:43:20.563Z,3.50
2022-11-01T05:45:47.112Z,3.40
2022-11-01T05:48:13.393Z,3.50
2022-11-01T05:50:39.649Z,4.10
2022-11-01T05:53:07.196Z,3.42
2022-11-01T05:55:35.742Z,3.20
2022-11-01T05:58:03.107Z,6.43
2022-11-01T06:00:29.585Z,3.30
2022-11-01T06:02:59.379Z,4.62
2022-11-01T06:05:26.670Z,3.70
2022-11-01T06:07:53.114Z,5.30
2022-11-01T06:10:19.531Z,3.60
2022-11-01T06:12:46.009Z,3.50
2022-11-01T06:15:13.132Z,3.40
2022-11-01T06:17:39.631Z,3.42
2022-11-01T06:20:06.975Z,3.53
2022-11-01T06:22:38.082Z,3.10
2022-11-01T06:25:08.013Z,4.05
2022-11-01T06:27:34.536Z,3.17
2022-11-01T06:30:03.124Z,3.05
2022-11-01T06:32:30.414Z,3.00
2022-11-01T06:34:56.629Z,2.80
2022-11-01T06:37:22.783Z,3.17
2022-11-01T06:39:49.265Z,3.33
2022-11-01T06:42:15.531Z,3.30
2022-11-01T06:44:42.459Z,3.35
2022-11-01T06:47:08.989Z,3.30
2022-11-01T06:49:35.294Z,3.28
2022-11-01T06:52:05.509Z,3.20
2022-11-01T06:54:32.034Z,3.42
2022-11-01T06:56:58.482Z,3.10
2022-11-01T06:59:24.912Z,2.87
2022-11-01T07:01:54.171Z,3.92
2022-11-01T07:04:21.684Z,3.87
2022-11-01T07:06:47.992Z,3.00
2022-11-01T07:09:14.154Z,4.53
2022-11-01T07:11:40.653Z,2.90
2022-11-01T07:14:06.800Z,3.10
2022-11-01T07:16:33.043Z,3.35
2022-11-01T07:18:59.244Z,3.30
2022-11-01T07:21:29.760Z,3.55
2022-11-01T07:23:57.335Z,3.28
2022-11-01T07:26:27.336Z,3.35
2022-11-01T07:29:00.458Z,2.80
2022-11-01T07:31:26.816Z,3.37
2022-11-01T07:33:53.612Z,2.50
2022-11-01T07:36:20.044Z,2.65
2022-11-01T07:38:46.882Z,2.85
2022-11-01T07:41:13.227Z,2.70
2022-11-01T07:43:40.146Z,2.55
2022-11-01T07:46:06.743Z,16.27
2022-11-01T07:48:33.182Z,3.10
2022-11-01T07:50:59.448Z,7.12
2022-11-01T07:53:25.623Z,7.35
2022-11-01T07:55:51.894Z,4.35
2022-11-01T07:58:18.181Z,2.65
2022-11-01T08:00:44.814Z,2.90
2022-11-01T08:03:13.464Z,2.53
2022-11-01T08:05:39.703Z,2.80
2022-11-01T08:08:06.531Z,2.80
2022-11-01T08:10:33.325Z,2.90
2022-11-01T08:13:01.347Z,3.10
2022-11-01T08:15:27.869Z,3.80
2022-11-01T08:17:57.160Z,3.83
2022-11-01T08:20:24.138Z,4.15
2022-11-01T08:22:52.176Z,4.45
2022-11-01T08:25:18.505Z,3.80
2022-11-01T08:27:45.548Z,3.08
2022-11-01T08:30:13.249Z,2.85
2022-11-01T08:32:39.492Z,2.90
2022-11-01T08:35:06.794Z,2.70
2022-11-01T08:37:32.975Z,2.60
2022-11-01T08:39:59.359Z,2.47
2022-11-01T08:42:26.211Z,2.50
2022-11-01T08:44:52.637Z,2.78
2022-11-01T08:47:18.950Z,2.70
2022-11-01T08:49:45.181Z,2.90
2022-11-01T08:52:12.658Z,3.10
2022-11-01T08:54:38.860Z,3.00
2022-11-01T08:57:05.153Z,3.20
2022-11-01T08:59:31.526Z,3.35
2022-11-01T09:01:58.425Z,3.40
2022-11-01T09:04:24.795Z,3.47
2022-11-01T09:06:51.132Z,3.58
2022-11-01T09:09:17.766Z,3.80
2022-11-01T09:11:43.955Z,3.70
2022-11-01T09:14:10.839Z,3.22
2022-11-01T09:16:37.265Z,3.00
2022-11-01T09:19:03.591Z,3.30
2022-11-01T09:21:31.820Z,4.43
2022-11-01T09:23:59.441Z,6.28
2022-11-01T09:26:27.090Z,8.15
2022-11-01T09:28:55.465Z,7.97
2022-11-01T09:31:22.263Z,7.90
2022-11-01T09:33:51.428Z,8.60
2022-11-01T09:36:17.832Z,8.45
2022-11-01T09:38:45.078Z,7.60
2022-11-01T09:41:33.303Z,4.25
2022-11-01T09:44:00.790Z,3.62
2022-11-01T09:46:30.694Z,3.20
2022-11-01T09:49:01.106Z,3.40
2022-11-01T09:51:29.194Z,3.05
2022-11-01T09:53:58.760Z,3.75
2022-11-01T09:58:06.609Z,4.07
2022-11-01T10:00:40.012Z,3.45
2022-11-01T10:03:17.299Z,4.22
2022-11-01T10:07:47.223Z,4.25
2022-11-01T10:11:47.877Z,3.17
2022-11-01T10:17:51.876Z,2.97
2022-11-01T10:20:22.042Z,2.87
2022-11-01T10:22:49.217Z,4.07
2022-11-01T10:25:37.504Z,3.80
2022-11-01T10:30:02.786Z,3.60
2022-11-01T10:34:02.226Z,4.55
2022-11-01T10:36:39.965Z,2.80
2022-11-01T10:39:58.043Z,2.70
2022-11-01T10:42:29.366Z,3.22
2022-11-01T10:45:15.458Z,3.30
2022-11-01T10:47:43.503Z,3.45
2022-11-01T10:50:22.819Z,3.10
2022-11-01T10:53:11.648Z,3.00
2022-11-01T10:55:43.298Z,2.80
2022-11-01T10:58:39.467Z,2.62
2022-11-01T11:01:07.223Z,2.50
2022-11-01T11:03:34.387Z,2.60
2022-11-01T11:06:05.435Z,2.60
2022-11-01T11:08:31.731Z,2.40
2022-11-01T11:11:02.978Z,2.60
2022-11-01T11:13:29.259Z,2.70
2022-11-01T11:16:06.014Z,2.75
2022-11-01T11:18:35.822Z,2.90
2022-11-01T11:21:11.066Z,3.20
2022-11-01T11:23:41.939Z,3.40
2022-11-01T11:26:09.147Z,3.37
2022-11-01T11:28:41.869Z,3.58
2022-11-01T11:31:20.563Z,3.47
2022-11-01T11:35:40.019Z,3.70
2022-11-01T11:38:06.912Z,3.12
2022-11-01T11:40:43.312Z,2.90
2022-11-01T11:43:34.666Z,2.90
2022-11-01T11:46:06.559Z,2.80
2022-11-01T11:48:33.512Z,2.90
2022-11-01T11:51:04.343Z,2.90
2022-11-01T11:53:33.580Z,2.60
2022-11-01T11:56:06.072Z,2.67
2022-11-01T11:58:43.654Z,2.42
2022-11-01T12:01:15.052Z,2.55
2022-11-01T12:04:24.458Z,2.50
2022-11-01T12:06:51.503Z,2.58
2022-11-01T12:09:47.343Z,2.60
2022-11-01T12:12:40.056Z,2.50
2022-11-01T12:15:34.372Z,2.40
2022-11-01T12:18:18.294Z,2.50
2022-11-01T12:20:51.910Z,2.55
2022-11-01T12:23:36.071Z,2.50
2022-11-01T12:26:05.835Z,2.62
2022-11-01T12:28:40.247Z,2.70
2022-11-01T12:31:19.450Z,2.70
2022-11-01T12:40:38.275Z,2.80
2022-11-01T12:48:53.397Z,2.70
2022-11-01T12:51:28.632Z,2.62
2022-11-01T12:54:18.207Z,2.50
2022-11-01T12:56:44.769Z,2.50
2022-11-01T12:59:13.360Z,2.60
2022-11-01T13:01:56.672Z,2.80
2022-11-01T13:04:36.694Z,2.70
2022-11-01T13:10:59.349Z,2.72
2022-11-01T13:13:54.773Z,2.70
2022-11-01T13:16:36.041Z,2.75
2022-11-01T13:19:09.547Z,2.70
2022-11-01T13:21:44.203Z,2.70
2022-11-01T13:24:34.116Z,2.53
2022-11-01T13:30:15.070Z,2.70
2022-11-01T13:33:36.174Z,2.70
2022-11-01T13:36:33.601Z,2.90
2022-11-01T13:39:11.513Z,3.20
2022-11-01T13:44:22.502Z,3.00
2022-11-01T13:47:29.258Z,2.60
2022-11-01T13:54:16.242Z,2.62
2022-11-01T13:56:47.269Z,2.78
2022-11-01T13:59:44.132Z,2.87
2022-11-01T14:05:24.505Z,2.85
2022-11-01T14:08:14.783Z,2.70
2022-11-01T14:10:48.077Z,2.65
2022-11-01T14:13:15.888Z,2.85
2022-11-01T14:20:49.506Z,2.80
2022-11-01T14:25:28.413Z,2.60
2022-11-01T14:28:20.541Z,2.65
2022-11-01T14:30:49.947Z,2.67
2022-11-01T14:33:19.520Z,2.70
2022-11-01T14:35:51.154Z,2.60
2022-11-01T14:38:20.005Z,2.67
2022-11-01T14:40:55.774Z,2.53
2022-11-01T14:43:30.490Z,2.75
2022-11-01T14:46:02.433Z,2.72
2022-11-01T14:50:05.435Z,3.20
2022-11-01T14:52:39.884Z,3.05
2022-11-01T14:55:26.894Z,2.97
2022-11-01T14:58:20.546Z,2.72
2022-11-01T15:00:49.141Z,2.95
2022-11-01T15:03:15.856Z,2.83
2022-11-01T15:05:49.587Z,2.70
2022-11-01T15:08:44.570Z,2.75
2022-11-01T15:11:11.200Z,2.85
2022-11-01T15:13:41.745Z,3.22
2022-11-01T15:16:23.009Z,3.40
2022-11-01T15:19:02.745Z,2.70
2022-11-01T15:21:31.357Z,3.03
2022-11-01T15:23:59.177Z,3.28
2022-11-01T15:26:27.662Z,3.20
2022-11-01T15:29:03.919Z,2.80
2022-11-01T15:31:31.727Z,2.60
2022-11-01T15:34:19.629Z,2.65
2022-11-01T15:36:46.284Z,2.78
2022-11-01T15:39:36.465Z,2.75
2022-11-01T15:42:13.465Z,2.92
2022-11-01T15:44:45.159Z,2.90
2022-11-01T15:47:21.461Z,3.37
2022-11-01T15:50:02.245Z,3.60
2022-11-01T15:52:30.774Z,4.07
2022-11-01T15:55:27.778Z,4.20
2022-11-01T15:58:11.217Z,3.65
2022-11-01T16:00:41.699Z,3.25
2022-11-01T16:04:03.469Z,2.85
2022-11-01T16:06:39.308Z,2.70
2022-11-01T16:09:37.579Z,2.67
2022-11-01T16:12:05.210Z,2.95
2022-11-01T16:14:37.492Z,3.25
2022-11-01T16:17:23.070Z,3.12
2022-11-01T16:19:50.896Z,2.95
2022-11-01T16:22:48.631Z,2.70
2022-11-01T16:25:19.164Z,2.40
2022-11-01T16:29:48.352Z,2.50
2022-11-01T16:32:27.624Z,2.20
2022-11-01T16:35:00.099Z,2.30
2022-11-01T16:37:34.276Z,2.30
2022-11-01T16:40:23.795Z,2.10
2022-11-01T16:42:51.373Z,2.30
2022-11-01T16:45:18.947Z,2.17
2022-11-01T16:47:47.389Z,2.30
2022-11-01T16:50:18.807Z,2.30
2022-11-01T16:52:45.139Z,2.50
2022-11-01T16:55:11.920Z,2.60
2022-11-01T16:57:38.747Z,2.72
2022-11-01T17:00:12.983Z,2.70
2022-11-01T17:02:50.199Z,2.60
2022-11-01T17:05:22.900Z,2.70
2022-11-01T17:07:49.630Z,2.62
2022-11-01T17:10:18.802Z,2.60
2022-11-01T17:12:47.477Z,2.65
2022-11-01T17:15:14.814Z,2.75
2022-11-01T17:17:43.614Z,2.60
2022-11-01T17:20:26.165Z,2.47
2022-11-01T17:22:53.345Z,2.30
2022-11-01T17:25:20.374Z,2.60
2022-11-01T17:27:54.878Z,2.65
2022-11-01T17:30:21.076Z,2.50
2022-11-01T17:32:47.694Z,2.47
2022-11-01T17:35:20.353Z,2.50
2022-11-01T17:37:49.218Z,2.50
2022-11-01T17:40:22.058Z,2.53
2022-11-01T17:42:51.963Z,2.45
2022-11-01T17:45:18.337Z,2.53
2022-11-01T17:47:45.705Z,2.50
2022-11-01T17:50:15.226Z,2.60
2022-11-01T17:52:42.802Z,2.40
2022-11-01T17:55:10.479Z,2.58
2022-11-01T17:57:38.091Z,2.55
2022-11-01T18:00:05.830Z,2.58
2022-11-01T18:02:32.516Z,2.58
2022-11-01T18:04:58.942Z,2.42
2022-11-01T18:07:27.066Z,2.40
2022-11-01T18:09:56.852Z,2.47
2022-11-01T18:12:38.028Z,2.53
2022-11-01T18:15:27.682Z,2.65
2022-11-01T18:19:46.730Z,2.47
2022-11-01T18:23:14.413Z,2.45
2022-11-01T18:25:47.555Z,2.47
2022-11-01T18:28:26.047Z,2.65
2022-11-01T18:31:09.141Z,2.58
2022-11-01T18:33:52.478Z,2.55
2022-11-01T18:36:30.403Z,2.70
2022-11-01T18:39:15.745Z,2.67
2022-11-01T18:41:47.829Z,2.70
2022-11-01T18:44:15.495Z,2.65
2022-11-01T18:47:47.563Z,2.72
2022-11-01T18:50:26.160Z,2.37
2022-11-01T18:53:06.541Z,2.50
2022-11-01T18:55:33.488Z,2.40
2022-11-01T18:58:08.999Z,2.37
2022-11-01T19:00:35.955Z,2.45
2022-11-01T19:03:13.170Z,2.42
2022-11-01T19:05:42.187Z,2.47
2022-11-01T19:08:26.225Z,2.60
2022-11-01T19:10:53.713Z,2.45
2022-11-01T19:13:32.672Z,2.50
2022-11-01T19:16:01.720Z,2.50
2022-11-01T19:18:28.113Z,2.50
2022-11-01T19:21:00.524Z,2.35
2022-11-01T19:23:40.297Z,2.50
2022-11-01T19:26:38.546Z,2.45
2022-11-01T19:29:25.836Z,2.35
2022-11-01T19:31:58.173Z,2.45
2022-11-01T19:34:32.265Z,2.30
2022-11-01T19:37:01.764Z,2.60
2022-11-01T19:39:31.237Z,2.45
2022-11-01T19:42:02.731Z,2.40
2022-11-01T19:44:33.318Z,2.40
2022-11-01T19:50:39.644Z,2.50
2022-11-01T19:54:08.626Z,2.42
2022-11-01T19:56:35.586Z,2.47
2022-11-01T19:59:04.425Z,2.58
2022-11-01T20:01:45.605Z,2.55
2022-11-01T20:04:29.689Z,2.58
2022-11-01T20:07:13.159Z,2.55
2022-11-01T20:09:41.518Z,2.50
2022-11-01T20:12:09.461Z,2.50
2022-11-01T20:14:37.777Z,2.55
2022-11-01T20:17:11.974Z,2.50
2022-11-01T20:19:44.404Z,2.47
2022-11-01T20:22:26.991Z,2.50
2022-11-01T20:24:55.449Z,2.40
2022-11-01T20:27:25.160Z,2.28
2022-11-01T20:29:51.759Z,2.50
2022-11-01T20:32:22.443Z,2.60
2022-11-01T20:34:50.419Z,2.50
2022-11-01T20:37:33.065Z,2.40
2022-11-01T20:40:03.217Z,2.45
2022-11-01T20:42:31.541Z,2.50
2022-11-01T20:45:02.016Z,2.33
2022-11-01T20:47:29.994Z,2.42
2022-11-01T20:49:57.208Z,2.53
2022-11-01T20:52:39.184Z,2.40
2022-11-01T20:55:08.721Z,2.45
2022-11-01T20:57:40.293Z,2.53
2022-11-01T21:00:17.953Z,2.50
2022-11-01T21:02:50.842Z,2.83
2022-11-01T21:05:28.809Z,2.47
2022-11-01T21:11:43.023Z,2.60
2022-11-01T21:14:17.714Z,2.40
2022-11-01T21:16:44.245Z,2.47
2022-11-01T21:19:23.486Z,2.60
2022-11-01T21:22:06.335Z,2.33
2022-11-01T21:24:36.879Z,2.37
2022-11-01T21:27:48.245Z,2.45
2022-11-01T21:30:17.098Z,2.50
2022-11-01T21:32:45.483Z,2.53
2022-11-01T21:37:50.890Z,2.50
2022-11-01T21:40:26.315Z,2.50
2022-11-01T21:42:53.207Z,2.60
2022-11-01T21:45:32.497Z,2.47
2022-11-01T21:48:01.610Z,2.60
2022-11-01T21:50:28.341Z,2.60
2022-11-01T21:52:55.073Z,2.55
2022-11-01T21:55:22.047Z,2.40
2022-11-01T21:57:48.547Z,2.50
2022-11-01T22:00:16.084Z,2.40
2022-11-01T22:02:42.945Z,2.35
2022-11-01T22:05:10.110Z,2.47
2022-11-01T22:07:36.748Z,2.45
2022-11-01T22:10:04.542Z,2.35
2022-11-01T22:12:32.259Z,2.60
2022-11-01T22:14:58.682Z,2.40
2022-11-01T22:17:26.177Z,2.47
2022-11-01T22:19:52.576Z,2.30
2022-11-01T22:22:26.180Z,2.40
2022-11-01T22:24:52.853Z,2.45
2022-11-01T22:27:20.030Z,2.67
2022-11-01T22:29:47.768Z,2.60
2022-11-01T22:32:14.491Z,2.47
2022-11-01T22:34:41.020Z,2.50
2022-11-01T22:37:14.184Z,2.58
2022-11-01T22:39:41.564Z,2.45
2022-11-01T22:42:15.112Z,2.50
2022-11-01T22:44:42.450Z,2.67
2022-11-01T22:47:14.457Z,2.70
2022-11-01T22:49:41.789Z,2.80
2022-11-01T22:52:36.217Z,3.05
2022-11-01T22:55:17.852Z,2.90
2022-11-01T22:57:47.271Z,2.80
2022-11-01T23:01:19.420Z,2.70
2022-11-01T23:03:51.156Z,2.87
2022-11-01T23:06:31.684Z,2.80
2022-11-01T23:09:01.176Z,2.80
2022-11-01T23:13:03.029Z,2.62
2022-11-01T23:15:30.826Z,2.80
2022-11-01T23:21:29.795Z,2.70
2022-11-01T23:23:58.634Z,2.85
2022-11-01T23:26:25.455Z,2.80
2022-11-01T23:28:52.440Z,2.60
2022-11-01T23:31:19.247Z,2.60
2022-11-01T23:33:47.727Z,3.00
2022-11-01T23:36:30.546Z,2.80
2022-11-01T23:39:01.370Z,2.90
2022-11-01T23:41:38.252Z,2.60
2022-11-01T23:44:28.453Z,2.80
2022-11-01T23:47:37.999Z,2.78
2022-11-01T23:50:23.875Z,2.50
2022-11-01T23:52:56.958Z,2.80
2022-11-01T23:55:37.339Z,3.20
2022-11-01T23:58:05.993Z,2.65
